Time;durP1;ratioP1;P1;durP2;ratioP2;P2;SDS_P1;SDS_P2;PMS_P1;PMS_P2;Temp;Humidity;BMP_temperature;BMP_pressure;BME280_temperature;BME280_humidity;BME280_pressure;Samples;Min_cycle;Max_cycle;Signal;HPM_P1;HPM_P2
2022/10/11 00:00:12;;;;;;;3.97;1.93;;;9.80;99.90;;;;;;5076721;28;20961;-77
2022/10/11 00:02:41;;;;;;;7.70;2.37;;;9.80;99.90;;;;;;5077109;28;20497;-80
2022/10/11 00:05:09;;;;;;;7.37;2.10;;;9.80;99.90;;;;;;5077670;28;20449;-79
2022/10/11 00:07:37;;;;;;;8.90;2.67;;;9.80;99.90;;;;;;5076762;28;20449;-79
2022/10/11 00:10:04;;;;;;;4.63;2.30;;;9.70;99.90;;;;;;5075111;28;20447;-79
2022/10/11 00:12:31;;;;;;;6.60;2.27;;;9.70;99.90;;;;;;5074876;28;20468;-78
2022/10/11 00:14:58;;;;;;;7.10;2.80;;;9.70;99.90;;;;;;5081130;22;20505;-83
2022/10/11 00:17:25;;;;;;;6.67;2.40;;;9.70;99.90;;;;;;5059448;28;20459;-84
2022/10/11 00:19:53;;;;;;;8.00;3.20;;;9.70;99.90;;;;;;5058619;28;20538;-83
2022/10/11 00:22:20;;;;;;;7.73;3.20;;;9.60;99.90;;;;;;5060943;28;20829;-80
2022/10/11 00:24:47;;;;;;;9.33;2.77;;;9.70;99.90;;;;;;5060418;28;20467;-83
2022/10/11 00:27:13;;;;;;;10.40;3.20;;;9.60;99.90;;;;;;5059130;28;20463;-84
2022/10/11 00:29:40;;;;;;;6.53;2.87;;;9.60;99.90;;;;;;5060314;28;20537;-84
2022/10/11 00:32:07;;;;;;;8.17;3.33;;;9.60;99.90;;;;;;5061022;28;20455;-83
2022/10/11 00:34:34;;;;;;;6.03;2.50;;;9.60;99.90;;;;;;5060380;28;20553;-83
2022/10/11 00:37:02;;;;;;;7.57;2.70;;;9.70;99.90;;;;;;5060157;28;20454;-84
2022/10/11 00:39:29;;;;;;;8.17;3.23;;;9.60;99.90;;;;;;5058805;28;20456;-83
2022/10/11 00:41:56;;;;;;;8.23;2.87;;;9.50;99.90;;;;;;5059437;28;20463;-83
2022/10/11 00:44:25;;;;;;;6.53;2.67;;;9.50;99.90;;;;;;5060040;28;20454;-83
2022/10/11 00:46:55;;;;;;;5.00;2.23;;;9.50;99.90;;;;;;5060004;28;20458;-83
2022/10/11 00:49:31;;;;;;;4.03;1.90;;;9.50;99.90;;;;;;5056338;28;20442;-83
2022/10/11 00:52:03;;;;;;;7.60;2.80;;;9.40;99.90;;;;;;5060456;28;20454;-83
2022/10/11 00:54:33;;;;;;;6.27;2.90;;;9.40;99.90;;;;;;5061636;28;20578;-83
2022/10/11 00:57:03;;;;;;;6.43;2.93;;;9.40;99.90;;;;;;5078514;28;20552;-82
2022/10/11 00:59:36;;;;;;;8.03;3.17;;;9.30;99.90;;;;;;5062240;28;20443;-80
2022/10/11 01:02:03;;;;;;;9.07;2.90;;;9.30;99.90;;;;;;5059094;28;20457;-83
2022/10/11 01:04:30;;;;;;;5.93;2.73;;;9.30;99.90;;;;;;5058921;28;20451;-83
2022/10/11 01:06:58;;;;;;;7.03;3.30;;;9.30;99.90;;;;;;5058127;28;20546;-81
2022/10/11 01:09:26;;;;;;;5.77;3.20;;;9.30;99.90;;;;;;5058650;28;20542;-83
2022/10/11 01:11:56;;;;;;;6.90;3.47;;;9.30;99.90;;;;;;5058387;28;20455;-83
2022/10/11 01:14:49;;;;;;;6.00;2.50;;;9.30;99.90;;;;;;5059231;28;20546;-83
2022/10/11 01:17:24;;;;;;;9.60;3.17;;;9.30;99.90;;;;;;5045431;28;20454;-82
2022/10/11 01:20:30;;;;;;;8.03;3.30;;;9.30;99.90;;;;;;5058038;28;20456;-83
2022/10/11 01:23:23;;;;;;;6.27;2.60;;;9.20;99.90;;;;;;5056690;28;20537;-83
2022/10/11 01:26:12;;;;;;;6.43;2.50;;;9.20;99.90;;;;;;5051586;28;20484;-84
2022/10/11 01:28:48;;;;;;;5.63;2.70;;;9.20;99.90;;;;;;5058741;28;20459;-84
2022/10/11 01:31:24;;;;;;;9.83;2.83;;;9.20;99.90;;;;;;5058478;28;20448;-84
2022/10/11 01:33:55;;;;;;;10.40;3.40;;;9.20;99.90;;;;;;5059267;28;20481;-83
2022/10/11 01:36:29;;;;;;;6.93;2.77;;;9.10;99.90;;;;;;5058741;28;20470;-84
2022/10/11 01:39:02;;;;;;;5.07;2.60;;;9.10;99.90;;;;;;5058338;28;20449;-83
2022/10/11 01:41:36;;;;;;;7.03;2.60;;;9.10;99.90;;;;;;5057760;28;20449;-83
2022/10/11 01:44:05;;;;;;;6.63;3.30;;;9.10;99.90;;;;;;5057441;28;20527;-83
2022/10/11 01:46:34;;;;;;;6.63;2.80;;;9.10;99.90;;;;;;5056412;28;20847;-83
2022/10/11 01:49:02;;;;;;;6.13;3.23;;;9.10;99.90;;;;;;5056987;28;20450;-83
2022/10/11 01:51:32;;;;;;;8.50;3.40;;;9.10;99.90;;;;;;5056843;28;20454;-82
2022/10/11 01:54:22;;;;;;;6.87;2.93;;;9.10;99.90;;;;;;5056604;28;20490;-83
2022/10/11 01:57:24;;;;;;;8.03;2.60;;;9.10;99.90;;;;;;5040056;28;20482;-83
2022/10/11 02:00:00;;;;;;;10.80;3.80;;;9.10;99.90;;;;;;5055646;28;20849;-83
2022/10/11 02:02:47;;;;;;;5.77;3.23;;;9.00;99.90;;;;;;5056736;28;20461;-83
2022/10/11 02:05:23;;;;;;;7.60;3.00;;;9.00;99.90;;;;;;5036925;28;20471;-83
2022/10/11 02:07:55;;;;;;;7.60;2.87;;;8.90;99.90;;;;;;5047263;28;20456;-82
2022/10/11 02:10:30;;;;;;;8.27;2.90;;;9.00;99.90;;;;;;5056641;28;20458;-81
2022/10/11 02:13:02;;;;;;;6.20;3.50;;;9.00;99.90;;;;;;5040592;28;20459;-81
2022/10/11 02:15:31;;;;;;;6.80;3.00;;;9.00;99.90;;;;;;5042161;28;20852;-81
2022/10/11 02:18:02;;;;;;;8.63;4.30;;;9.00;99.90;;;;;;5059329;28;20451;-83
2022/10/11 02:20:31;;;;;;;6.30;2.87;;;8.90;99.90;;;;;;5056092;28;20456;-82
2022/10/11 02:23:03;;;;;;;7.40;3.20;;;8.90;99.90;;;;;;5035213;28;20437;-83
2022/10/11 02:25:36;;;;;;;5.77;2.80;;;8.90;99.90;;;;;;5041491;28;20474;-83
2022/10/11 02:28:07;;;;;;;6.70;2.70;;;8.90;99.90;;;;;;5054806;28;20832;-83
2022/10/11 02:30:35;;;;;;;15.20;3.67;;;8.90;99.90;;;;;;5054899;28;20445;-83
2022/10/11 02:33:06;;;;;;;6.40;2.93;;;8.90;99.90;;;;;;5055411;28;20451;-83
2022/10/11 02:35:40;;;;;;;5.20;2.57;;;8.90;99.90;;;;;;5055365;28;20484;-83
2022/10/11 02:38:17;;;;;;;9.73;3.53;;;8.90;99.90;;;;;;5053807;28;20559;-82
2022/10/11 02:40:47;;;;;;;6.10;3.10;;;8.80;99.90;;;;;;5056013;28;20453;-83
2022/10/11 02:43:18;;;;;;;4.80;2.80;;;8.80;99.90;;;;;;5056353;28;20452;-84
2022/10/11 02:45:50;;;;;;;9.87;3.43;;;8.80;99.90;;;;;;5056210;28;20472;-83
2022/10/11 02:48:18;;;;;;;6.30;3.40;;;8.70;99.90;;;;;;5056354;28;20456;-82
2022/10/11 02:50:45;;;;;;;6.53;3.47;;;8.70;99.90;;;;;;5055623;28;20471;-83
2022/10/11 02:53:12;;;;;;;7.57;3.03;;;8.80;99.90;;;;;;5056011;28;20458;-84
2022/10/11 02:55:39;;;;;;;9.27;3.67;;;8.80;99.90;;;;;;5060020;28;20492;-82
2022/10/11 02:58:06;;;;;;;7.50;3.37;;;8.70;99.90;;;;;;5060912;28;20456;-83
2022/10/11 03:00:32;;;;;;;9.60;3.93;;;8.70;99.90;;;;;;5059927;28;20448;-84
2022/10/11 03:02:59;;;;;;;5.87;2.90;;;8.70;99.90;;;;;;5061457;28;20834;-83
2022/10/11 03:05:27;;;;;;;10.37;3.43;;;8.60;99.90;;;;;;5061436;28;20470;-84
2022/10/11 03:07:54;;;;;;;6.83;2.70;;;8.60;99.90;;;;;;5042698;28;20453;-82
2022/10/11 03:10:21;;;;;;;7.33;3.33;;;8.60;99.90;;;;;;5063394;28;20491;-83
2022/10/11 03:12:48;;;;;;;7.73;3.33;;;8.60;99.90;;;;;;5067794;28;20834;-82
2022/10/11 03:15:14;;;;;;;5.20;2.73;;;8.50;99.90;;;;;;5056962;28;20487;-83
2022/10/11 03:17:41;;;;;;;11.73;3.87;;;8.50;99.90;;;;;;5058640;28;20453;-81
2022/10/11 03:20:09;;;;;;;7.70;3.83;;;8.50;99.90;;;;;;5056610;28;20448;-82
2022/10/11 03:22:37;;;;;;;6.87;2.77;;;8.50;99.90;;;;;;5046960;28;20460;-84
2022/10/11 03:25:04;;;;;;;10.80;4.17;;;8.50;99.90;;;;;;5036644;28;20469;-82
2022/10/11 03:27:31;;;;;;;7.30;3.43;;;8.50;99.90;;;;;;5054058;28;20462;-84
2022/10/11 03:29:58;;;;;;;7.00;3.57;;;8.50;99.90;;;;;;5056801;28;20462;-83
2022/10/11 03:32:25;;;;;;;7.07;3.53;;;8.50;99.90;;;;;;5057407;28;20458;-84
2022/10/11 03:34:52;;;;;;;8.23;3.37;;;8.50;99.90;;;;;;5056864;28;20517;-81
2022/10/11 03:37:18;;;;;;;8.43;4.00;;;8.50;99.90;;;;;;5056778;28;20818;-83
2022/10/11 03:39:47;;;;;;;8.23;4.23;;;8.50;99.90;;;;;;5057566;28;20483;-83
2022/10/11 03:42:14;;;;;;;7.27;3.57;;;8.50;99.90;;;;;;5056223;28;20448;-82
2022/10/11 03:44:41;;;;;;;8.83;3.37;;;8.40;99.90;;;;;;5054555;28;20456;-82
2022/10/11 03:47:08;;;;;;;8.10;3.63;;;8.30;99.90;;;;;;5048274;28;20493;-83
2022/10/11 03:49:36;;;;;;;6.43;3.37;;;8.30;99.90;;;;;;5053991;28;20466;-81
2022/10/11 03:52:03;;;;;;;8.20;3.60;;;8.40;99.90;;;;;;5056298;28;20525;-82
2022/10/11 03:54:29;;;;;;;6.63;3.90;;;8.40;99.90;;;;;;5057053;28;20491;-80
2022/10/11 03:56:58;;;;;;;10.43;4.10;;;8.40;99.90;;;;;;5051928;28;20456;-82
2022/10/11 03:59:25;;;;;;;11.50;4.57;;;8.40;99.90;;;;;;5049157;28;20465;-82
2022/10/11 04:01:51;;;;;;;11.80;4.47;;;8.40;99.90;;;;;;5056836;28;20459;-82
2022/10/11 04:04:18;;;;;;;7.37;3.73;;;8.30;99.90;;;;;;5053627;28;20461;-81
2022/10/11 04:06:45;;;;;;;4.80;3.17;;;8.20;99.90;;;;;;5037000;28;20470;-82
2022/10/11 04:09:12;;;;;;;7.63;3.90;;;8.20;99.90;;;;;;5042741;28;20469;-82
2022/10/11 04:11:39;;;;;;;8.70;4.63;;;8.20;99.90;;;;;;5056855;28;20948;-83
2022/10/11 04:14:10;;;;;;;7.20;3.80;;;8.20;99.90;;;;;;5054242;28;20494;-82
2022/10/11 04:16:37;;;;;;;8.07;4.07;;;8.20;99.90;;;;;;5055881;28;20509;-81
2022/10/11 04:19:04;;;;;;;8.37;4.37;;;8.20;99.90;;;;;;5049716;28;20479;-80
2022/10/11 04:21:31;;;;;;;8.30;4.80;;;8.20;99.90;;;;;;5048681;28;20449;-81
2022/10/11 04:23:57;;;;;;;7.77;4.60;;;8.20;99.90;;;;;;5057004;28;20451;-81
2022/10/11 04:26:24;;;;;;;6.70;3.90;;;8.20;99.90;;;;;;5057046;28;20484;-81
2022/10/11 04:28:51;;;;;;;8.60;4.87;;;8.20;99.90;;;;;;5057642;28;20449;-81
2022/10/11 04:31:19;;;;;;;7.03;3.57;;;8.20;99.90;;;;;;5057575;28;20466;-80
2022/10/11 04:33:46;;;;;;;7.20;4.50;;;8.20;99.90;;;;;;5057330;28;20454;-81
2022/10/11 04:36:13;;;;;;;10.87;4.53;;;8.10;99.90;;;;;;5057974;28;20456;-82
2022/10/11 04:38:40;;;;;;;7.37;4.37;;;8.20;99.90;;;;;;5056429;28;20448;-80
2022/10/11 04:41:07;;;;;;;12.10;5.03;;;8.20;99.90;;;;;;5056983;28;20943;-80
2022/10/11 04:43:34;;;;;;;12.00;5.43;;;8.20;99.90;;;;;;5057056;28;20450;-80
2022/10/11 04:46:01;;;;;;;10.77;4.90;;;8.20;99.90;;;;;;5058676;28;20455;-80
2022/10/11 04:48:29;;;;;;;10.60;5.03;;;8.20;99.90;;;;;;5058062;28;20526;-79
2022/10/11 04:50:56;;;;;;;14.37;5.90;;;8.20;99.90;;;;;;5056484;28;20448;-82
2022/10/11 04:53:25;;;;;;;11.40;5.67;;;8.20;99.90;;;;;;5055287;28;20525;-81
2022/10/11 04:55:59;;;;;;;10.10;5.00;;;8.10;99.90;;;;;;5052628;28;21020;-81
2022/10/11 04:58:26;;;;;;;9.50;5.17;;;8.20;99.90;;;;;;5052732;28;20447;-82
2022/10/11 05:00:59;;;;;;;8.33;5.10;;;8.20;99.90;;;;;;5056428;28;20469;-82
2022/10/11 05:03:26;;;;;;;8.73;4.83;;;8.10;99.90;;;;;;5053523;28;20500;-82
2022/10/11 05:05:54;;;;;;;9.20;5.10;;;8.10;99.90;;;;;;5056256;28;20486;-82
2022/10/11 05:08:22;;;;;;;12.23;6.27;;;8.10;99.90;;;;;;5050714;28;20452;-82
2022/10/11 05:10:55;;;;;;;11.33;5.87;;;8.10;99.90;;;;;;5056218;28;20455;-83
2022/10/11 05:13:22;;;;;;;11.93;5.17;;;8.10;99.90;;;;;;5055742;28;20449;-83
2022/10/11 05:15:50;;;;;;;10.80;5.77;;;8.00;99.90;;;;;;5055914;28;20511;-83
2022/10/11 05:18:17;;;;;;;9.13;7.07;;;8.10;99.90;;;;;;5058328;28;20447;-81
2022/10/11 05:20:44;;;;;;;11.40;5.83;;;8.10;99.90;;;;;;5059763;28;20458;-83
2022/10/11 05:23:13;;;;;;;11.03;5.40;;;8.00;99.90;;;;;;5072284;28;20464;-83
2022/10/11 05:25:40;;;;;;;12.30;5.50;;;8.00;99.90;;;;;;5067724;28;20482;-83
2022/10/11 05:28:07;;;;;;;13.33;6.60;;;8.10;99.90;;;;;;5057611;28;20664;-83
2022/10/11 05:30:34;;;;;;;10.23;6.23;;;8.00;99.90;;;;;;5056728;28;20448;-83
2022/10/11 05:33:01;;;;;;;11.33;6.50;;;8.00;99.90;;;;;;5057411;28;20454;-83
2022/10/11 05:35:28;;;;;;;14.93;5.70;;;8.00;99.90;;;;;;5056552;28;20499;-82
2022/10/11 05:37:54;;;;;;;11.47;7.40;;;8.00;99.90;;;;;;5052268;28;20455;-83
2022/10/11 05:40:22;;;;;;;11.60;5.90;;;8.00;99.90;;;;;;5050548;28;20478;-83
2022/10/11 05:42:49;;;;;;;7.53;4.40;;;8.00;99.90;;;;;;5053947;28;20461;-83
2022/10/11 05:45:16;;;;;;;8.80;6.00;;;8.00;99.90;;;;;;5055678;28;20472;-82
2022/10/11 05:47:43;;;;;;;11.27;5.87;;;8.00;99.90;;;;;;5053748;28;20452;-84
2022/10/11 05:50:10;;;;;;;7.10;5.87;;;7.90;99.90;;;;;;5055462;28;20491;-84
2022/10/11 05:52:37;;;;;;;10.73;6.77;;;7.90;99.90;;;;;;5052789;28;20477;-84
2022/10/11 05:55:04;;;;;;;17.17;6.73;;;7.90;99.90;;;;;;5052753;28;20492;-86
2022/10/11 05:57:32;;;;;;;14.73;6.20;;;7.80;99.90;;;;;;5051321;28;20466;-84
2022/10/11 05:59:59;;;;;;;9.53;6.03;;;7.70;99.90;;;;;;5060141;28;20457;-84
2022/10/11 06:02:26;;;;;;;15.50;6.47;;;7.70;99.90;;;;;;5060352;28;21026;-83
2022/10/11 06:04:53;;;;;;;11.90;6.40;;;7.70;99.90;;;;;;5056647;28;20469;-84
2022/10/11 06:07:20;;;;;;;9.60;6.17;;;7.70;99.90;;;;;;5053833;28;20457;-85
2022/10/11 06:09:46;;;;;;;12.07;6.57;;;7.80;99.90;;;;;;5053427;28;20546;-84
2022/10/11 06:12:14;;;;;;;10.27;7.13;;;7.80;99.90;;;;;;5052779;28;20541;-84
2022/10/11 06:14:42;;;;;;;14.80;6.10;;;7.80;99.90;;;;;;5053682;28;20490;-84
2022/10/11 06:17:09;;;;;;;13.33;7.80;;;7.90;99.90;;;;;;5054370;28;20499;-84
2022/10/11 06:19:36;;;;;;;13.03;6.70;;;7.90;99.90;;;;;;5053907;28;20932;-84
2022/10/11 06:22:02;;;;;;;11.10;7.17;;;8.00;99.90;;;;;;5056238;28;20452;-86
2022/10/11 06:24:29;;;;;;;12.77;6.70;;;8.00;99.90;;;;;;5054162;28;20477;-85
2022/10/11 06:26:56;;;;;;;12.70;6.90;;;8.00;99.90;;;;;;5055843;28;20973;-87
2022/10/11 06:29:23;;;;;;;13.83;7.80;;;8.10;99.90;;;;;;5058480;28;20531;-85
2022/10/11 06:31:51;;;;;;;15.07;7.53;;;8.10;99.90;;;;;;5069814;28;20533;-87
2022/10/11 06:34:18;;;;;;;13.60;6.67;;;8.10;99.90;;;;;;5059709;28;20455;-85
2022/10/11 06:36:44;;;;;;;12.07;6.50;;;8.20;99.90;;;;;;5057051;28;20487;-85
2022/10/11 06:39:11;;;;;;;12.70;7.20;;;8.20;99.90;;;;;;5056581;28;20456;-84
2022/10/11 06:41:38;;;;;;;11.17;6.20;;;8.20;99.90;;;;;;5055584;28;20491;-86
2022/10/11 06:44:05;;;;;;;11.70;7.40;;;8.20;99.90;;;;;;5056395;28;20455;-84
2022/10/11 06:46:32;;;;;;;16.10;8.93;;;8.30;99.90;;;;;;5056688;28;20476;-85
2022/10/11 06:49:00;;;;;;;11.27;8.23;;;8.40;99.90;;;;;;5055652;28;20521;-86
2022/10/11 06:51:28;;;;;;;13.07;8.33;;;8.40;99.90;;;;;;5056554;28;20444;-86
2022/10/11 06:53:59;;;;;;;11.20;7.10;;;8.40;99.90;;;;;;5056807;28;20888;-85
2022/10/11 06:56:29;;;;;;;12.00;7.80;;;8.50;99.90;;;;;;5056107;28;20487;-86
2022/10/11 06:58:58;;;;;;;13.50;8.30;;;8.60;99.90;;;;;;5056283;28;20829;-85
2022/10/11 07:01:25;;;;;;;13.67;7.47;;;8.60;99.90;;;;;;5057387;28;20444;-87
2022/10/11 07:03:53;;;;;;;9.73;6.73;;;8.70;99.90;;;;;;5058743;28;20464;-86
2022/10/11 07:06:23;;;;;;;13.20;8.33;;;8.80;99.90;;;;;;5055493;28;20477;-88
2022/10/11 07:08:50;;;;;;;12.03;7.10;;;8.80;99.90;;;;;;5055384;28;20458;-87
2022/10/11 07:11:19;;;;;;;12.50;7.97;;;8.80;99.90;;;;;;5055328;28;20447;-87
2022/10/11 07:13:50;;;;;;;14.40;7.50;;;8.90;99.90;;;;;;5062065;28;20526;-88
2022/10/11 07:16:17;;;;;;;12.10;7.73;;;9.00;99.90;;;;;;5058189;28;20579;-87
2022/10/11 07:18:44;;;;;;;14.47;7.83;;;9.10;99.90;;;;;;5054527;28;20460;-87
2022/10/11 07:21:13;;;;;;;13.87;8.33;;;9.10;99.90;;;;;;5054404;28;20541;-87
2022/10/11 07:23:42;;;;;;;15.10;8.20;;;9.20;99.90;;;;;;5053987;28;20538;-87
2022/10/11 07:26:10;;;;;;;13.53;8.80;;;9.30;99.90;;;;;;5054864;28;20464;-86
2022/10/11 07:28:38;;;;;;;12.53;9.33;;;9.40;99.90;;;;;;5055373;28;20464;-87
2022/10/11 07:31:07;;;;;;;22.13;9.50;;;9.40;99.90;;;;;;5056229;28;20453;-87
2022/10/11 07:33:34;;;;;;;17.50;9.30;;;9.50;99.90;;;;;;5060770;28;20456;-87
2022/10/11 07:36:00;;;;;;;17.03;10.57;;;9.60;99.90;;;;;;5080279;28;20553;-87
2022/10/11 07:38:28;;;;;;;15.80;11.27;;;9.70;99.90;;;;;;5064588;28;20438;-86
2022/10/11 07:40:56;;;;;;;24.60;13.13;;;9.80;99.90;;;;;;5053738;28;20817;-87
2022/10/11 07:43:23;;;;;;;22.33;13.43;;;9.80;99.90;;;;;;5054269;28;20838;-87
2022/10/11 07:45:53;;;;;;;15.67;11.37;;;9.90;99.90;;;;;;5054234;28;20468;-87
2022/10/11 07:48:20;;;;;;;20.90;12.30;;;10.00;99.90;;;;;;5053832;28;20461;-87
2022/10/11 07:50:47;;;;;;;24.20;11.47;;;10.10;99.90;;;;;;5054386;28;20505;-87
2022/10/11 07:53:14;;;;;;;23.10;11.90;;;10.20;99.90;;;;;;5053854;28;20476;-87
2022/10/11 07:55:41;;;;;;;16.53;9.33;;;10.30;99.90;;;;;;5054212;28;20494;-87
2022/10/11 07:58:10;;;;;;;20.10;10.33;;;10.30;99.90;;;;;;5054047;28;20466;-87
2022/10/11 08:00:37;;;;;;;16.47;10.50;;;10.40;99.90;;;;;;5054491;28;20453;-87
2022/10/11 08:03:05;;;;;;;23.47;12.20;;;10.40;99.90;;;;;;5052690;28;20993;-87
2022/10/11 08:05:33;;;;;;;14.53;10.80;;;10.40;99.90;;;;;;5056449;28;20479;-87
2022/10/11 08:07:59;;;;;;;22.90;12.00;;;10.50;99.90;;;;;;5053877;28;20452;-87
2022/10/11 08:10:27;;;;;;;17.53;9.87;;;10.60;99.90;;;;;;5054368;28;20456;-87
2022/10/11 08:12:54;;;;;;;18.67;10.20;;;10.60;99.90;;;;;;5054081;28;20457;-87
2022/10/11 08:15:22;;;;;;;19.30;11.10;;;10.70;99.90;;;;;;5053781;28;20521;-87
2022/10/11 08:17:49;;;;;;;17.30;11.53;;;10.80;99.90;;;;;;5053772;28;20458;-87
2022/10/11 08:20:16;;;;;;;16.57;11.73;;;10.80;99.90;;;;;;5053443;28;20462;-87
2022/10/11 08:22:43;;;;;;;14.63;9.90;;;10.90;99.90;;;;;;5053987;28;20842;-87
2022/10/11 08:25:09;;;;;;;20.50;10.23;;;11.00;99.90;;;;;;5052530;28;20475;-86
2022/10/11 08:27:36;;;;;;;19.93;10.10;;;11.00;99.90;;;;;;5053567;28;20465;-88
2022/10/11 08:30:04;;;;;;;16.53;10.60;;;11.10;99.90;;;;;;5054581;28;20450;-86
2022/10/11 08:32:32;;;;;;;16.10;9.40;;;11.20;99.90;;;;;;5054191;28;20451;-87
2022/10/11 08:34:59;;;;;;;20.37;10.10;;;11.20;99.90;;;;;;5054258;28;21018;-86
2022/10/11 08:37:27;;;;;;;16.47;9.93;;;11.30;99.90;;;;;;5054319;28;20493;-86
2022/10/11 08:39:54;;;;;;;21.33;11.20;;;11.30;99.90;;;;;;5053908;28;21325;-87
2022/10/11 08:42:30;;;;;;;19.47;8.27;;;11.30;99.90;;;;;;5053451;28;20452;-87
2022/10/11 08:45:02;;;;;;;16.03;8.00;;;11.30;99.90;;;;;;5053521;28;20555;-87
2022/10/11 08:47:36;;;;;;;15.10;7.77;;;11.50;99.90;;;;;;5053340;28;20450;-86
2022/10/11 08:50:07;;;;;;;18.47;7.03;;;11.60;99.90;;;;;;5050516;28;20561;-87
2022/10/11 08:52:44;;;;;;;19.03;7.90;;;11.70;99.90;;;;;;5052866;28;20453;-87
2022/10/11 08:55:18;;;;;;;15.23;8.97;;;11.70;99.90;;;;;;5052521;28;20498;-86
2022/10/11 08:57:52;;;;;;;12.37;8.00;;;11.80;99.90;;;;;;5051480;28;20451;-87
2022/10/11 09:00:20;;;;;;;15.20;8.17;;;11.90;99.90;;;;;;5052661;28;20455;-86
2022/10/11 09:02:57;;;;;;;17.03;7.90;;;12.00;99.90;;;;;;5054047;28;20514;-87
2022/10/11 09:05:28;;;;;;;16.13;7.00;;;12.10;99.90;;;;;;5052837;28;20480;-88
2022/10/11 09:08:01;;;;;;;13.07;8.13;;;12.20;99.90;;;;;;5053474;28;20984;-87
2022/10/11 09:10:51;;;;;;;15.10;8.17;;;12.30;99.90;;;;;;5053622;28;20462;-88
2022/10/11 09:13:34;;;;;;;14.47;5.83;;;12.40;99.90;;;;;;5053250;28;20456;-87
2022/10/11 09:16:10;;;;;;;13.97;5.77;;;12.50;99.90;;;;;;5052347;28;20492;-88
2022/10/11 09:19:03;;;;;;;8.37;6.00;;;12.60;99.90;;;;;;5052787;28;20472;-88
2022/10/11 09:21:42;;;;;;;14.80;6.27;;;12.70;99.90;;;;;;5038192;28;20459;-88
2022/10/11 09:24:34;;;;;;;13.13;6.17;;;12.80;99.90;;;;;;5052788;28;20473;-88
2022/10/11 09:27:08;;;;;;;9.33;5.20;;;12.80;99.90;;;;;;5053911;28;20450;-88
2022/10/11 09:29:51;;;;;;;11.23;5.33;;;13.00;99.90;;;;;;5052568;28;20834;-87
2022/10/11 09:32:20;;;;;;;15.13;4.17;;;13.10;99.90;;;;;;5053162;28;20891;-87
2022/10/11 09:34:57;;;;;;;15.43;4.77;;;13.10;99.90;;;;;;5053246;28;20458;-89
2022/10/11 09:37:31;;;;;;;12.33;5.33;;;13.20;99.90;;;;;;5052798;28;20490;-87
2022/10/11 09:40:05;;;;;;;13.90;5.47;;;13.20;99.90;;;;;;5033439;28;20443;-89
2022/10/11 09:42:31;;;;;;;12.80;4.73;;;13.30;99.90;;;;;;5037682;28;20455;-88
2022/10/11 09:45:00;;;;;;;15.10;5.37;;;13.40;99.90;;;;;;5058492;28;20468;-89
2022/10/11 09:47:29;;;;;;;11.47;3.80;;;13.40;99.90;;;;;;5054668;28;20523;-89
2022/10/11 09:50:01;;;;;;;8.73;3.83;;;13.30;99.90;;;;;;5051528;28;20460;-89
2022/10/11 09:52:28;;;;;;;8.40;4.23;;;13.40;99.90;;;;;;5053270;28;20482;-88
2022/10/11 09:54:58;;;;;;;9.90;4.20;;;13.60;99.90;;;;;;5053829;28;20469;-89
2022/10/11 09:57:27;;;;;;;9.87;3.87;;;13.70;99.90;;;;;;5053848;28;20540;-89
2022/10/11 10:00:04;;;;;;;10.40;3.13;;;13.80;99.90;;;;;;5052812;28;20461;-88
2022/10/11 10:02:39;;;;;;;10.20;2.20;;;13.90;99.90;;;;;;5032614;28;20453;-89
2022/10/11 10:05:17;;;;;;;14.77;2.43;;;14.00;99.90;;;;;;5033221;28;20565;-89
2022/10/11 10:08:21;;;;;;;12.23;2.80;;;14.10;99.90;;;;;;5049111;28;20443;-88
2022/10/11 10:10:57;;;;;;;6.80;2.13;;;14.20;99.90;;;;;;5032825;28;20462;-89
2022/10/11 10:13:27;;;;;;;8.60;2.27;;;14.60;99.90;;;;;;5037769;28;20534;-88
2022/10/11 10:15:57;;;;;;;5.00;1.60;;;15.00;99.90;;;;;;5052870;28;20502;-88
2022/10/11 10:18:29;;;;;;;10.13;2.80;;;15.50;99.90;;;;;;5052761;28;20966;-89
2022/10/11 10:20:59;;;;;;;7.90;2.80;;;15.90;99.90;;;;;;5052849;28;20440;-89
2022/10/11 10:23:29;;;;;;;5.23;2.10;;;16.20;99.90;;;;;;5052541;28;20971;-89
2022/10/11 10:26:11;;;;;;;10.03;2.47;;;16.60;99.90;;;;;;5052889;28;20471;-89
2022/10/11 10:28:38;;;;;;;9.10;2.27;;;17.00;99.90;;;;;;5055172;28;20446;-88
2022/10/11 10:31:17;;;;;;;9.37;3.23;;;16.90;99.90;;;;;;5053569;28;20800;-88
2022/10/11 10:33:46;;;;;;;7.43;2.07;;;16.80;99.90;;;;;;5055365;28;20450;-88
2022/10/11 10:36:20;;;;;;;6.83;1.67;;;17.00;99.90;;;;;;5054894;28;21032;-88
2022/10/11 10:38:51;;;;;;;8.50;2.40;;;17.40;99.90;;;;;;5056237;28;20852;-87
2022/10/11 10:41:18;;;;;;;6.17;2.33;;;17.60;99.90;;;;;;5057544;28;20440;-87
2022/10/11 10:43:51;;;;;;;11.93;3.47;;;17.90;99.90;;;;;;5051549;28;20462;-88
2022/10/11 10:46:33;;;;;;;10.23;2.10;;;18.20;99.90;;;;;;5052281;28;20482;-88
2022/10/11 10:49:09;;;;;;;10.40;2.73;;;18.60;99.90;;;;;;5052176;28;20957;-88
2022/10/11 10:51:47;;;;;;;6.23;1.60;;;19.00;99.90;;;;;;5052357;28;20437;-89
2022/10/11 10:54:24;;;;;;;8.70;2.27;;;19.50;99.90;;;;;;5051783;28;20946;-88
2022/10/11 10:56:55;;;;;;;7.30;1.87;;;19.70;99.90;;;;;;5051876;28;20485;-87
2022/10/11 11:00:10;;;;;;;5.70;1.70;;;19.50;99.90;;;;;;5052186;28;20561;-86
2022/10/11 11:02:46;;;;;;;11.40;3.20;;;19.70;99.90;;;;;;4992408;28;20433;-87
2022/10/11 11:05:23;;;;;;;6.90;1.70;;;20.30;99.90;;;;;;5050795;28;20485;-86
2022/10/11 11:07:56;;;;;;;7.93;1.83;;;20.80;99.90;;;;;;5052718;28;20432;-85
2022/10/11 11:10:30;;;;;;;5.53;1.80;;;21.50;99.90;;;;;;5052879;28;20451;-85
2022/10/11 11:13:04;;;;;;;8.57;2.10;;;21.40;99.90;;;;;;5054686;28;20790;-86
2022/10/11 11:15:38;;;;;;;3.60;1.50;;;20.70;99.90;;;;;;5055549;28;20479;-85
2022/10/11 11:18:24;;;;;;;7.70;2.30;;;21.50;99.90;;;;;;5057232;28;20464;-86
2022/10/11 11:21:03;;;;;;;8.60;2.30;;;21.80;99.90;;;;;;5038010;28;20463;-86
2022/10/11 11:23:38;;;;;;;6.73;3.23;;;21.80;99.90;;;;;;5054939;28;20443;-85
2022/10/11 11:26:14;;;;;;;9.10;2.53;;;22.30;99.90;;;;;;5056794;28;21042;-85
2022/10/11 11:28:53;;;;;;;7.20;1.83;;;22.50;99.90;;;;;;5059483;28;20450;-85
2022/10/11 11:31:42;;;;;;;7.43;1.73;;;22.00;99.90;;;;;;5058795;28;20446;-85
2022/10/11 11:34:21;;;;;;;10.57;2.80;;;21.80;99.90;;;;;;5055335;28;20533;-85
2022/10/11 11:36:54;;;;;;;9.03;2.50;;;21.40;99.90;;;;;;5058321;28;20492;-86
2022/10/11 11:39:25;;;;;;;6.73;1.73;;;20.90;99.90;;;;;;5056352;28;20467;-85
2022/10/11 11:41:56;;;;;;;10.63;1.80;;;20.30;99.90;;;;;;5057129;28;20454;-86
2022/10/11 11:44:29;;;;;;;6.83;2.20;;;19.80;99.90;;;;;;5055354;28;20452;-87
2022/10/11 11:47:01;;;;;;;6.37;2.10;;;19.20;99.90;;;;;;5056174;28;20444;-86
2022/10/11 11:49:33;;;;;;;5.77;2.10;;;18.60;99.90;;;;;;5055372;28;20994;-87
2022/10/11 11:52:01;;;;;;;5.83;1.70;;;18.30;99.90;;;;;;5055598;28;20969;-87
2022/10/11 11:54:42;;;;;;;7.43;1.80;;;17.90;99.90;;;;;;5055678;28;20980;-87
2022/10/11 11:57:18;;;;;;;8.83;1.80;;;17.60;99.90;;;;;;5055998;28;20475;-87
2022/10/11 11:59:51;;;;;;;9.07;2.40;;;17.40;99.90;;;;;;5055711;28;20457;-87
2022/10/11 12:02:35;;;;;;;6.77;2.30;;;17.80;99.90;;;;;;5056320;28;20441;-87
2022/10/11 12:05:02;;;;;;;7.33;2.23;;;19.00;99.90;;;;;;5055822;28;20472;-88
2022/10/11 12:07:29;;;;;;;7.67;2.77;;;19.80;99.90;;;;;;5055822;28;20547;-87
2022/10/11 12:10:16;;;;;;;9.37;1.97;;;20.60;99.90;;;;;;5055952;28;20474;-88
2022/10/11 12:12:43;;;;;;;6.23;2.43;;;21.20;99.90;;;;;;5055290;28;20455;-88
2022/10/11 12:15:20;;;;;;;11.90;3.23;;;22.00;99.90;;;;;;5054278;28;20859;-86
2022/10/11 12:18:15;;;;;;;9.27;2.37;;;22.10;99.90;;;;;;5054523;28;20519;-89
2022/10/11 12:20:43;;;;;;;8.43;2.27;;;21.90;99.90;;;;;;5053128;28;20496;-85
2022/10/11 12:23:40;;;;;;;4.70;2.13;;;21.20;99.90;;;;;;5057213;28;20454;-87
2022/10/11 12:26:40;;;;;;;5.13;2.40;;;20.50;99.90;;;;;;5054964;28;21032;-88
2022/10/11 12:29:42;;;;;;;10.10;2.60;;;19.70;99.90;;;;;;5055026;28;20455;-88
2022/10/11 12:32:49;;;;;;;12.43;2.13;;;18.70;99.90;;;;;;5054941;28;20448;-86
2022/10/11 12:36:01;;;;;;;8.50;2.00;;;18.80;99.90;;;;;;5054746;28;20474;-87
2022/10/11 12:38:29;;;;;;;12.60;2.13;;;19.80;99.90;;;;;;5028814;28;20498;-87
2022/10/11 12:40:59;;;;;;;5.93;1.80;;;21.00;99.90;;;;;;5055818;28;20979;-87
2022/10/11 12:43:36;;;;;;;4.33;1.50;;;21.70;99.90;;;;;;5054679;28;20522;-88
2022/10/11 12:46:38;;;;;;;10.80;2.30;;;22.30;99.90;;;;;;5056935;28;20500;-88
2022/10/11 12:49:21;;;;;;;5.13;1.70;;;22.60;99.90;;;;;;5055337;28;20439;-87
2022/10/11 12:51:57;;;;;;;12.33;2.73;;;22.90;99.90;;;;;;5054875;28;20447;-88
2022/10/11 12:54:48;;;;;;;6.83;2.03;;;23.20;99.90;;;;;;5088649;22;20821;-79
2022/10/11 12:57:40;;;;;;;5.50;1.87;;;23.60;99.90;;;;;;5067199;28;20685;-82
2022/10/11 13:00:19;;;;;;;6.57;2.17;;;23.50;99.90;;;;;;5062147;28;20452;-80
2022/10/11 13:02:47;;;;;;;6.40;2.80;;;23.70;99.90;;;;;;5067180;28;20455;-81
2022/10/11 13:05:23;;;;;;;4.43;1.93;;;23.50;99.90;;;;;;5069320;28;20478;-82
2022/10/11 13:07:51;;;;;;;4.97;2.00;;;23.90;99.90;;;;;;5064820;28;20534;-80
2022/10/11 13:10:24;;;;;;;4.90;1.67;;;24.50;99.90;;;;;;5058696;28;20460;-81